createdAt,value
2018-03-21T00:01:01.487Z,1027.59
2018-03-21T00:02:10.417Z,1027.59
2018-03-21T00:03:19.243Z,1027.67
2018-03-21T00:04:28.069Z,1027.71
2018-03-21T00:05:36.899Z,1027.7
2018-03-21T00:06:45.725Z,1027.68
2018-03-21T00:07:54.553Z,1027.72
2018-03-21T00:09:03.383Z,1027.72
2018-03-21T00:10:12.207Z,1027.7
2018-03-21T00:11:21.033Z,1027.72
2018-03-21T00:12:29.891Z,1027.74
2018-03-21T00:13:38.836Z,1027.72
2018-03-21T00:14:47.662Z,1027.7
2018-03-21T00:15:56.488Z,1027.73
2018-03-21T00:17:05.314Z,1027.73
2018-03-21T00:18:14.140Z,1027.71
2018-03-21T00:19:22.964Z,1027.73
2018-03-21T00:20:32.066Z,1027.78
2018-03-21T00:21:40.896Z,1027.74
2018-03-21T00:22:50.000Z,1027.75
2018-03-21T00:23:58.825Z,1027.75
2018-03-21T00:25:07.800Z,1027.75
2018-03-21T00:26:16.627Z,1027.77
2018-03-21T00:27:25.469Z,1027.77
2018-03-21T00:28:34.281Z,1027.8
2018-03-21T00:29:43.389Z,1027.81
2018-03-21T00:30:52.552Z,1027.8
2018-03-21T00:32:01.378Z,1027.82
2018-03-21T00:33:10.479Z,1027.81
2018-03-21T00:34:19.307Z,1027.75
2018-03-21T00:35:28.135Z,1027.79
2018-03-21T00:36:36.960Z,1027.78
2018-03-21T00:37:45.794Z,1027.77
2018-03-21T00:38:54.620Z,1027.76
2018-03-21T00:40:03.450Z,1027.78
2018-03-21T00:41:12.272Z,1027.81
2018-03-21T00:42:21.100Z,1027.8
2018-03-21T00:43:29.925Z,1027.79
2018-03-21T00:44:38.753Z,1027.79
2018-03-21T00:45:47.580Z,1027.79
2018-03-21T00:46:56.404Z,1027.78
2018-03-21T00:48:05.331Z,1027.75
2018-03-21T00:49:14.708Z,1027.75
2018-03-21T00:50:23.810Z,1027.79
2018-03-21T00:51:32.637Z,1027.73
2018-03-21T00:52:41.463Z,1027.76
2018-03-21T00:53:50.561Z,1027.78
2018-03-21T00:54:59.388Z,1027.74
2018-03-21T00:56:08.215Z,1027.74
2018-03-21T00:57:17.041Z,1027.79
2018-03-21T00:58:25.866Z,1027.72
2018-03-21T00:59:34.691Z,1027.75
2018-03-21T01:00:43.520Z,1027.75
2018-03-21T01:01:52.344Z,1027.75
2018-03-21T01:03:01.995Z,1027.73
2018-03-21T01:04:10.802Z,1027.75
2018-03-21T01:05:19.727Z,1027.67
2018-03-21T01:06:28.551Z,1027.66
2018-03-21T01:07:37.376Z,1027.62
2018-03-21T01:08:46.202Z,1027.69
2018-03-21T01:09:55.028Z,1027.68
2018-03-21T01:11:03.857Z,1027.67
2018-03-21T01:12:12.689Z,1027.63
2018-03-21T01:13:21.794Z,1027.62
2018-03-21T01:14:30.616Z,1027.62
2018-03-21T01:15:39.443Z,1027.64
2018-03-21T01:16:48.545Z,1027.66
2018-03-21T01:17:57.369Z,1027.65
2018-03-21T01:19:06.198Z,1027.64
2018-03-21T01:20:15.022Z,1027.63
2018-03-21T01:21:23.848Z,1027.62
2018-03-21T01:22:32.975Z,1027.62
2018-03-21T01:23:42.079Z,1027.63
2018-03-21T01:24:50.910Z,1027.66
2018-03-21T01:26:00.289Z,1027.67
2018-03-21T01:27:09.117Z,1027.67
2018-03-21T01:28:18.040Z,1027.66
2018-03-21T01:29:26.864Z,1027.66
2018-03-21T01:30:35.690Z,1027.61
2018-03-21T01:31:44.517Z,1027.62
2018-03-21T01:32:53.342Z,1027.63
2018-03-21T01:34:02.592Z,1027.64
2018-03-21T01:35:11.695Z,1027.66
2018-03-21T01:36:20.850Z,1027.63
2018-03-21T01:37:29.621Z,1027.63
2018-03-21T01:38:38.446Z,1027.62
2018-03-21T01:39:47.645Z,1027.66
2018-03-21T01:40:56.750Z,1027.68
2018-03-21T01:42:05.572Z,1027.65
2018-03-21T01:43:14.397Z,1027.68
2018-03-21T01:44:23.223Z,1027.69
2018-03-21T01:45:32.049Z,1027.67
2018-03-21T01:46:40.875Z,1027.71
2018-03-21T01:47:49.702Z,1027.73
2018-03-21T01:48:58.526Z,1027.72
2018-03-21T01:50:07.353Z,1027.7
2018-03-21T01:51:16.482Z,1027.76
2018-03-21T01:52:25.305Z,1027.67
2018-03-21T01:53:34.133Z,1027.68
2018-03-21T01:54:43.233Z,1027.63
2018-03-21T01:55:52.064Z,1027.61
2018-03-21T01:57:00.982Z,1027.63
2018-03-21T01:58:09.808Z,1027.59
2018-03-21T01:59:18.633Z,1027.55
2018-03-21T02:00:27.459Z,1027.6
2018-03-21T02:01:36.284Z,1027.61
2018-03-21T02:02:45.208Z,1027.6
2018-03-21T02:03:54.035Z,1027.59
2018-03-21T02:05:02.861Z,1027.6
2018-03-21T02:06:11.687Z,1027.63
2018-03-21T02:07:20.545Z,1027.65
2018-03-21T02:08:29.539Z,1027.63
2018-03-21T02:09:38.366Z,1027.68
2018-03-21T02:10:47.466Z,1027.65
2018-03-21T02:11:56.571Z,1027.67
2018-03-21T02:13:05.393Z,1027.66
2018-03-21T02:14:14.518Z,1027.64
2018-03-21T02:15:23.343Z,1027.63
2018-03-21T02:16:32.166Z,1027.58
2018-03-21T02:17:40.993Z,1027.57
2018-03-21T02:18:49.819Z,1027.63
2018-03-21T02:19:58.979Z,1027.6
2018-03-21T02:21:07.802Z,1027.6
2018-03-21T02:22:16.908Z,1027.6
2018-03-21T02:23:26.282Z,1027.63
2018-03-21T02:24:35.107Z,1027.61
2018-03-21T02:25:44.034Z,1027.62
2018-03-21T02:26:53.134Z,1027.65
2018-03-21T02:28:01.964Z,1027.59
2018-03-21T02:29:10.789Z,1027.64
2018-03-21T02:30:19.616Z,1027.62
2018-03-21T02:31:28.442Z,1027.65
2018-03-21T02:32:37.268Z,1027.62
2018-03-21T02:33:46.094Z,1027.65
2018-03-21T02:34:54.920Z,1027.68
2018-03-21T02:36:03.746Z,1027.67
2018-03-21T02:37:12.619Z,1027.66
2018-03-21T02:38:21.733Z,1027.7
2018-03-21T02:39:30.562Z,1027.68
2018-03-21T02:40:39.674Z,1027.72
2018-03-21T02:41:48.497Z,1027.7
2018-03-21T02:42:57.766Z,1027.69
2018-03-21T02:44:06.594Z,1027.7
2018-03-21T02:45:15.697Z,1027.7
2018-03-21T02:46:24.522Z,1027.7
2018-03-21T02:47:33.355Z,1027.71
2018-03-21T02:48:42.231Z,1027.7
2018-03-21T02:49:51.334Z,1027.7
2018-03-21T02:51:00.726Z,1027.72
2018-03-21T02:52:09.558Z,1027.69
2018-03-21T02:53:18.380Z,1027.67
2018-03-21T02:54:27.208Z,1027.7
2018-03-21T02:55:36.320Z,1027.61
2018-03-21T02:56:45.422Z,1027.62
2018-03-21T02:57:54.249Z,1027.65
2018-03-21T02:59:03.399Z,1027.61
2018-03-21T03:00:12.527Z,1027.63
2018-03-21T03:01:21.352Z,1027.59
2018-03-21T03:02:30.188Z,1027.56
2018-03-21T03:03:39.319Z,1027.59
2018-03-21T03:04:48.138Z,1027.55
2018-03-21T03:05:56.965Z,1027.58
2018-03-21T03:07:06.070Z,1027.58
2018-03-21T03:08:14.896Z,1027.62
2018-03-21T03:09:23.723Z,1027.57
2018-03-21T03:10:32.829Z,1027.59
2018-03-21T03:11:41.655Z,1027.57
2018-03-21T03:12:50.483Z,1027.58
2018-03-21T03:13:59.306Z,1027.6
2018-03-21T03:15:08.137Z,1027.62
2018-03-21T03:16:16.962Z,1027.58
2018-03-21T03:17:25.787Z,1027.57
2018-03-21T03:18:34.615Z,1027.6
2018-03-21T03:19:43.439Z,1027.61
2018-03-21T03:20:52.268Z,1027.65
2018-03-21T03:22:01.092Z,1027.62
2018-03-21T03:23:10.216Z,1027.63
2018-03-21T03:24:19.039Z,1027.66
2018-03-21T03:25:27.864Z,1027.64
2018-03-21T03:26:36.688Z,1027.63
2018-03-21T03:27:45.512Z,1027.65
2018-03-21T03:28:54.697Z,1027.64
2018-03-21T03:30:03.495Z,1027.62
2018-03-21T03:31:12.320Z,1027.63
2018-03-21T03:32:21.149Z,1027.64
2018-03-21T03:33:29.976Z,1027.67
2018-03-21T03:34:39.177Z,1027.64
2018-03-21T03:35:48.002Z,1027.68
2018-03-21T03:36:56.827Z,1027.67
2018-03-21T03:38:05.654Z,1027.66
2018-03-21T03:39:14.473Z,1027.64
2018-03-21T03:40:23.450Z,1027.65
2018-03-21T03:41:32.277Z,1027.67
2018-03-21T03:42:41.102Z,1027.67
2018-03-21T03:43:49.927Z,1027.67
2018-03-21T03:44:58.752Z,1027.65
2018-03-21T03:46:08.105Z,1027.64
2018-03-21T03:47:16.935Z,1027.67
2018-03-21T03:48:25.759Z,1027.61
2018-03-21T03:49:34.582Z,1027.64
2018-03-21T03:50:43.408Z,1027.64
2018-03-21T03:51:52.283Z,1027.62
2018-03-21T03:53:01.107Z,1027.54
2018-03-21T03:54:09.933Z,1027.59
2018-03-21T03:55:18.760Z,1027.6
2018-03-21T03:56:27.584Z,1027.64
2018-03-21T03:57:36.613Z,1027.67
2018-03-21T03:58:45.435Z,1027.65
2018-03-21T03:59:54.274Z,1027.64
2018-03-21T04:01:03.196Z,1027.68
2018-03-21T04:02:12.353Z,1027.69
2018-03-21T04:03:21.504Z,1027.71
2018-03-21T04:04:30.331Z,1027.68
2018-03-21T04:05:39.159Z,1027.66
2018-03-21T04:06:48.260Z,1027.64
2018-03-21T04:07:57.088Z,1027.7
2018-03-21T04:09:05.913Z,1027.69
2018-03-21T04:10:14.738Z,1027.7
2018-03-21T04:11:24.109Z,1027.69
2018-03-21T04:12:32.936Z,1027.71
2018-03-21T04:13:41.768Z,1027.69
2018-03-21T04:14:50.743Z,1027.71
2018-03-21T04:15:59.573Z,1027.67
2018-03-21T04:17:08.399Z,1027.69
2018-03-21T04:18:17.224Z,1027.69
2018-03-21T04:19:26.046Z,1027.72
2018-03-21T04:20:34.969Z,1027.7
2018-03-21T04:21:44.069Z,1027.7
2018-03-21T04:22:52.896Z,1027.73
2018-03-21T04:24:01.720Z,1027.67
2018-03-21T04:25:10.549Z,1027.68
2018-03-21T04:26:19.378Z,1027.7
2018-03-21T04:27:28.485Z,1027.69
2018-03-21T04:28:37.309Z,1027.68
2018-03-21T04:29:46.410Z,1027.71
2018-03-21T04:30:55.239Z,1027.69
2018-03-21T04:32:04.114Z,1027.74
2018-03-21T04:33:12.938Z,1027.75
2018-03-21T04:34:21.769Z,1027.78
2018-03-21T04:35:31.161Z,1027.77
2018-03-21T04:36:39.986Z,1027.74
2018-03-21T04:37:49.092Z,1027.72
2018-03-21T04:38:57.915Z,1027.65
2018-03-21T04:40:06.740Z,1027.66
2018-03-21T04:41:15.565Z,1027.66
2018-03-21T04:42:24.389Z,1027.63
2018-03-21T04:43:33.262Z,1027.6
2018-03-21T04:44:42.085Z,1027.61
2018-03-21T04:45:50.910Z,1027.58
2018-03-21T04:47:00.018Z,1027.62
2018-03-21T04:48:08.838Z,1027.6
2018-03-21T04:49:17.963Z,1027.61
2018-03-21T04:50:26.788Z,1027.61
2018-03-21T04:51:35.610Z,1027.6
2018-03-21T04:52:44.438Z,1027.64
2018-03-21T04:53:53.547Z,1027.62
2018-03-21T04:55:02.673Z,1027.64
2018-03-21T04:56:11.498Z,1027.59
2018-03-21T04:57:20.599Z,1027.62
2018-03-21T04:58:29.423Z,1027.6
2018-03-21T04:59:38.526Z,1027.62
2018-03-21T05:00:47.400Z,1027.61
2018-03-21T05:01:56.265Z,1027.61
2018-03-21T05:03:05.106Z,1027.63
2018-03-21T05:04:14.148Z,1027.61
2018-03-21T05:05:22.972Z,1027.62
2018-03-21T05:06:31.947Z,1027.64
2018-03-21T05:07:40.775Z,1027.6
2018-03-21T05:08:49.604Z,1027.6
2018-03-21T05:09:58.423Z,1027.62
2018-03-21T05:11:07.250Z,1027.57
2018-03-21T05:12:16.075Z,1027.63
2018-03-21T05:13:24.899Z,1027.6
2018-03-21T05:14:33.723Z,1027.62
2018-03-21T05:15:42.825Z,1027.67
2018-03-21T05:16:51.649Z,1027.63
2018-03-21T05:18:00.625Z,1027.68
2018-03-21T05:19:09.451Z,1027.68
2018-03-21T05:20:18.277Z,1027.67
2018-03-21T05:21:27.101Z,1027.72
2018-03-21T05:22:35.928Z,1027.71
2018-03-21T05:23:44.906Z,1027.72
2018-03-21T05:24:53.728Z,1027.74
2018-03-21T05:26:02.829Z,1027.74
2018-03-21T05:27:11.653Z,1027.76
2018-03-21T05:28:20.487Z,1027.78
2018-03-21T05:29:29.408Z,1027.79
2018-03-21T05:30:38.236Z,1027.77
2018-03-21T05:31:47.058Z,1027.81
2018-03-21T05:32:55.882Z,1027.79
2018-03-21T05:34:04.710Z,1027.82
2018-03-21T05:35:13.632Z,1027.81
2018-03-21T05:36:22.457Z,1027.82
2018-03-21T05:37:31.281Z,1027.82
2018-03-21T05:38:40.107Z,1027.79
2018-03-21T05:39:48.930Z,1027.81
2018-03-21T05:40:57.904Z,1027.79
2018-03-21T05:42:06.738Z,1027.84
2018-03-21T05:43:15.565Z,1027.84
2018-03-21T05:44:24.392Z,1027.89
2018-03-21T05:45:33.493Z,1027.84
2018-03-21T05:46:42.470Z,1027.91
2018-03-21T05:47:51.303Z,1027.84
2018-03-21T05:49:00.126Z,1027.84
2018-03-21T05:50:08.953Z,1027.84
2018-03-21T05:51:17.779Z,1027.9
2018-03-21T05:52:26.902Z,1027.83
2018-03-21T05:53:35.728Z,1027.88
2018-03-21T05:54:44.553Z,1027.85
2018-03-21T05:55:53.377Z,1027.87
2018-03-21T05:57:02.480Z,1027.89
2018-03-21T05:58:11.554Z,1027.87
2018-03-21T05:59:20.380Z,1027.89
2018-03-21T06:00:29.208Z,1027.91
2018-03-21T06:01:38.031Z,1027.89
2018-03-21T06:02:46.855Z,1027.9
2018-03-21T06:03:55.830Z,1027.87
2018-03-21T06:05:04.660Z,1027.87
2018-03-21T06:06:13.478Z,1027.86
2018-03-21T06:07:22.303Z,1027.9
2018-03-21T06:08:31.404Z,1027.92
2018-03-21T06:09:40.686Z,1027.95
2018-03-21T06:10:50.131Z,1028.01
2018-03-21T06:11:58.956Z,1027.96
2018-03-21T06:13:07.781Z,1027.91
2018-03-21T06:14:16.605Z,1027.93
2018-03-21T06:15:25.480Z,1027.92
2018-03-21T06:16:34.304Z,1027.98
2018-03-21T06:17:43.130Z,1027.94
2018-03-21T06:18:51.955Z,1028.01
2018-03-21T06:20:00.777Z,1027.98
2018-03-21T06:21:09.703Z,1027.97
2018-03-21T06:22:18.528Z,1027.97
2018-03-21T06:23:27.353Z,1027.96
2018-03-21T06:24:36.181Z,1027.99
2018-03-21T06:25:45.003Z,1028
2018-03-21T06:26:54.212Z,1028.01
2018-03-21T06:28:03.039Z,1027.98
2018-03-21T06:29:12.145Z,1027.96
2018-03-21T06:30:20.969Z,1027.96
2018-03-21T06:31:30.087Z,1027.98
2018-03-21T06:32:39.208Z,1028
2018-03-21T06:33:48.038Z,1027.97
2018-03-21T06:34:56.863Z,1027.97
2018-03-21T06:36:05.692Z,1027.99
2018-03-21T06:37:14.793Z,1027.98
2018-03-21T06:38:23.672Z,1028.03
2018-03-21T06:39:32.770Z,1028.08
2018-03-21T06:40:41.596Z,1028.1
2018-03-21T06:41:50.700Z,1028.08
2018-03-21T06:42:59.525Z,1028.11
2018-03-21T06:44:08.832Z,1028.09
2018-03-21T06:45:17.655Z,1028.08
2018-03-21T06:46:26.482Z,1028.04
2018-03-21T06:47:35.306Z,1028.09
2018-03-21T06:48:44.133Z,1028.1
2018-03-21T06:49:53.259Z,1028.1
2018-03-21T06:51:02.084Z,1028.06
2018-03-21T06:52:10.909Z,1028.13
2018-03-21T06:53:19.734Z,1028.13
2018-03-21T06:54:28.558Z,1028.13
2018-03-21T06:55:37.765Z,1028.16
2018-03-21T06:56:46.593Z,1028.14
2018-03-21T06:57:55.420Z,1028.15
2018-03-21T06:59:04.245Z,1028.2
2018-03-21T07:00:13.069Z,1028.16
2018-03-21T07:01:22.296Z,1028.11
2018-03-21T07:02:31.167Z,1028.16
2018-03-21T07:03:39.952Z,1028.18
2018-03-21T07:04:48.777Z,1028.19
2018-03-21T07:05:57.887Z,1028.18
2018-03-21T07:07:06.814Z,1028.24
2018-03-21T07:08:15.646Z,1028.23
2018-03-21T07:09:25.051Z,1028.19
2018-03-21T07:10:33.852Z,1028.24
2018-03-21T07:11:42.679Z,1028.2
2018-03-21T07:12:51.655Z,1028.26
2018-03-21T07:14:00.481Z,1028.21
2018-03-21T07:15:09.306Z,1028.26
2018-03-21T07:16:18.131Z,1028.24
2018-03-21T07:17:26.957Z,1028.29
2018-03-21T07:18:36.069Z,1028.29
2018-03-21T07:19:44.895Z,1028.27
2018-03-21T07:20:53.721Z,1028.31
2018-03-21T07:22:02.824Z,1028.33
2018-03-21T07:23:11.954Z,1028.3
2018-03-21T07:24:20.854Z,1028.33
2018-03-21T07:25:29.680Z,1028.34
2018-03-21T07:26:38.514Z,1028.4
2018-03-21T07:27:47.616Z,1028.4
2018-03-21T07:28:56.720Z,1028.31
2018-03-21T07:30:05.696Z,1028.35
2018-03-21T07:31:14.522Z,1028.37
2018-03-21T07:32:23.351Z,1028.41
2018-03-21T07:33:32.178Z,1028.42
2018-03-21T07:34:41.009Z,1028.4
2018-03-21T07:35:50.074Z,1028.44
2018-03-21T07:36:58.988Z,1028.51
2018-03-21T07:38:07.820Z,1028.48
2018-03-21T07:39:16.650Z,1028.45
2018-03-21T07:40:25.479Z,1028.46
2018-03-21T07:41:34.301Z,1028.52
2018-03-21T07:42:43.129Z,1028.56
2018-03-21T07:43:52.235Z,1028.57
2018-03-21T07:45:01.099Z,1028.54
2018-03-21T07:46:09.888Z,1028.55
2018-03-21T07:47:19.570Z,1028.54
2018-03-21T07:48:28.676Z,1028.47
2018-03-21T07:49:37.784Z,1028.44
2018-03-21T07:50:46.668Z,1028.49
2018-03-21T07:51:55.437Z,1028.53
2018-03-21T07:53:04.364Z,1028.47
2018-03-21T07:54:13.194Z,1028.47
2018-03-21T07:55:22.021Z,1028.49
2018-03-21T07:56:31.123Z,1028.47
2018-03-21T07:57:39.952Z,1028.45
2018-03-21T07:58:48.981Z,1028.46
2018-03-21T07:59:57.808Z,1028.44
2018-03-21T08:01:06.636Z,1028.5
2018-03-21T08:02:15.471Z,1028.53
2018-03-21T08:03:24.291Z,1028.52
2018-03-21T08:04:33.119Z,1028.57
2018-03-21T08:05:41.945Z,1028.55
2018-03-21T08:06:50.773Z,1028.58
2018-03-21T08:07:59.608Z,1028.62
2018-03-21T08:09:08.438Z,1028.57
2018-03-21T08:10:17.368Z,1028.54
2018-03-21T08:11:26.194Z,1028.49
2018-03-21T08:12:35.339Z,1028.48
2018-03-21T08:13:44.442Z,1028.49
2018-03-21T08:14:53.271Z,1028.48
2018-03-21T08:16:02.728Z,1028.45
2018-03-21T08:17:11.651Z,1028.46
2018-03-21T08:18:20.522Z,1028.51
2018-03-21T08:19:29.490Z,1028.49
2018-03-21T08:20:38.335Z,1028.53
2018-03-21T08:21:47.555Z,1028.56
2018-03-21T08:22:56.384Z,1028.55
2018-03-21T08:24:06.371Z,1028.54
2018-03-21T08:25:15.682Z,1028.52
2018-03-21T08:26:24.626Z,1028.59
2018-03-21T08:27:33.971Z,1028.6
2018-03-21T08:28:42.921Z,1028.61
2018-03-21T08:29:52.007Z,1028.6
2018-03-21T08:31:01.122Z,1028.56
2018-03-21T08:32:10.163Z,1028.56
2018-03-21T08:33:19.144Z,1028.56
2018-03-21T08:34:28.088Z,1028.52
2018-03-21T08:35:36.950Z,1028.52
2018-03-21T08:36:46.372Z,1028.48
2018-03-21T08:37:55.779Z,1028.45
2018-03-21T08:39:04.919Z,1028.46
2018-03-21T08:40:14.004Z,1028.44
2018-03-21T08:41:22.899Z,1028.48
2018-03-21T08:42:32.183Z,1028.43
2018-03-21T08:43:41.262Z,1028.44
2018-03-21T08:44:50.422Z,1028.44
2018-03-21T08:45:59.307Z,1028.46
2018-03-21T08:47:08.830Z,1028.44
2018-03-21T08:48:17.776Z,1028.45
2018-03-21T08:49:26.687Z,1028.44
2018-03-21T08:50:36.561Z,1028.45
2018-03-21T08:51:45.492Z,1028.47
2018-03-21T08:52:54.601Z,1028.43
2018-03-21T08:54:03.684Z,1028.43
2018-03-21T08:55:12.529Z,1028.44
2018-03-21T08:56:22.261Z,1028.41
2018-03-21T08:57:31.383Z,1028.44
2018-03-21T08:58:40.238Z,1028.45
2018-03-21T08:59:49.892Z,1028.45
2018-03-21T09:00:58.790Z,1028.48
2018-03-21T09:02:08.294Z,1028.49
2018-03-21T09:03:17.468Z,1028.54
2018-03-21T09:04:26.964Z,1028.49
2018-03-21T09:05:36.103Z,1028.55
2018-03-21T09:06:45.268Z,1028.53
2018-03-21T09:07:54.176Z,1028.51
2018-03-21T09:09:03.610Z,1028.52
2018-03-21T09:10:12.501Z,1028.54
2018-03-21T09:11:22.429Z,1028.51
2018-03-21T09:12:31.813Z,1028.54
2018-03-21T09:13:41.497Z,1028.48
2018-03-21T09:14:51.094Z,1028.58
2018-03-21T09:16:00.911Z,1028.53
2018-03-21T09:17:10.102Z,1028.47
2018-03-21T09:18:19.485Z,1028.47
2018-03-21T09:19:28.313Z,1028.42
2018-03-21T09:20:37.228Z,1028.4
2018-03-21T09:21:46.887Z,1028.4
2018-03-21T09:22:56.270Z,1028.4
2018-03-21T09:24:05.450Z,1028.35
2018-03-21T09:25:14.366Z,1028.36
2018-03-21T09:26:23.551Z,1028.39
2018-03-21T09:27:32.920Z,1028.4
2018-03-21T09:28:42.313Z,1028.41
2018-03-21T09:29:51.497Z,1028.47
2018-03-21T09:31:00.954Z,1028.49
2018-03-21T09:32:10.342Z,1028.57
2018-03-21T09:33:19.246Z,1028.63
2018-03-21T09:34:28.564Z,1028.59
2018-03-21T09:35:37.938Z,1028.58
2018-03-21T09:36:47.311Z,1028.56
2018-03-21T09:37:56.205Z,1028.64
2018-03-21T09:39:05.375Z,1028.62
2018-03-21T09:40:14.932Z,1028.6
2018-03-21T09:41:23.777Z,1028.54
2018-03-21T09:42:33.335Z,1028.57
2018-03-21T09:45:21.324Z,1028.54
2018-03-21T09:46:30.476Z,1028.49
2018-03-21T09:47:40.153Z,1028.52
2018-03-21T09:48:49.421Z,1028.48
2018-03-21T09:49:58.552Z,1028.51
2018-03-21T09:51:07.742Z,1028.47
2018-03-21T09:52:16.791Z,1028.51
2018-03-21T09:53:25.915Z,1028.5
2018-03-21T09:54:34.808Z,1028.47
2018-03-21T09:55:43.640Z,1028.47
2018-03-21T09:56:52.470Z,1028.42
2018-03-21T09:58:01.302Z,1028.44
2018-03-21T09:59:10.132Z,1028.4
2018-03-21T10:00:19.063Z,1028.41
2018-03-21T10:01:28.192Z,1028.4
2018-03-21T10:02:37.020Z,1028.34
2018-03-21T10:03:45.882Z,1028.35
2018-03-21T10:04:55.035Z,1028.37
2018-03-21T10:06:03.994Z,1028.37
2018-03-21T10:07:13.106Z,1028.39
2018-03-21T10:08:22.320Z,1028.39
2018-03-21T10:09:31.272Z,1028.4
2018-03-21T10:10:40.152Z,1028.45
2018-03-21T10:11:49.192Z,1028.45
2018-03-21T10:12:58.081Z,1028.5
2018-03-21T10:14:07.038Z,1028.45
2018-03-21T10:15:16.136Z,1028.46
2018-03-21T10:16:25.068Z,1028.5
2018-03-21T10:17:33.948Z,1028.49
2018-03-21T10:18:43.017Z,1028.53
2018-03-21T10:19:51.920Z,1028.52
2018-03-21T10:21:00.900Z,1028.58
2018-03-21T10:22:09.780Z,1028.47
2018-03-21T10:24:57.372Z,1028.5
2018-03-21T10:26:06.788Z,1028.56
2018-03-21T10:27:15.722Z,1028.56
2018-03-21T10:28:24.795Z,1028.56
2018-03-21T10:29:33.693Z,1028.53
2018-03-21T10:30:42.614Z,1028.55
2018-03-21T10:31:51.542Z,1028.53
2018-03-21T10:33:00.453Z,1028.56
2018-03-21T10:34:09.340Z,1028.5
2018-03-21T10:35:18.503Z,1028.5
2018-03-21T10:36:27.365Z,1028.43
2018-03-21T10:37:36.332Z,1028.36
2018-03-21T10:38:45.303Z,1028.2
2018-03-21T10:39:54.466Z,1028.18
2018-03-21T10:41:03.595Z,1028.15
2018-03-21T10:42:12.775Z,1028.15
2018-03-21T10:43:21.696Z,1028.11
2018-03-21T10:44:30.620Z,1028.18
2018-03-21T10:45:40.052Z,1028.11
2018-03-21T10:46:49.209Z,1028.08
2018-03-21T10:47:58.138Z,1028.07
2018-03-21T10:49:07.674Z,1028.07
2018-03-21T10:50:16.645Z,1027.96
2018-03-21T10:51:25.678Z,1027.98
2018-03-21T10:52:38.914Z,1028
2018-03-21T10:53:43.682Z,1027.98
2018-03-21T10:54:52.675Z,1028
2018-03-21T10:56:01.574Z,1027.98
2018-03-21T10:57:10.744Z,1028.02
2018-03-21T10:58:19.920Z,1028.02
2018-03-21T10:59:28.840Z,1027.89
2018-03-21T11:00:37.737Z,1027.89
2018-03-21T11:01:46.811Z,1027.91
2018-03-21T11:02:56.198Z,1027.91
2018-03-21T11:04:05.064Z,1027.91
2018-03-21T11:05:13.959Z,1028.04
2018-03-21T11:06:23.111Z,1027.93
2018-03-21T11:07:32.029Z,1027.97
2018-03-21T11:08:40.997Z,1028.01
2018-03-21T11:09:49.942Z,1027.95
2018-03-21T11:10:59.112Z,1027.96
2018-03-21T11:12:08.847Z,1027.99
2018-03-21T11:13:17.722Z,1027.93
2018-03-21T11:14:27.143Z,1027.94
2018-03-21T11:15:36.332Z,1027.94
2018-03-21T11:16:45.438Z,1027.96
2018-03-21T11:17:54.380Z,1027.87
2018-03-21T11:19:03.381Z,1027.9
2018-03-21T11:20:12.583Z,1027.91
2018-03-21T11:21:21.648Z,1027.9
2018-03-21T11:22:30.555Z,1027.85
2018-03-21T11:23:39.472Z,1027.86
2018-03-21T11:24:48.360Z,1027.86
2018-03-21T11:25:57.652Z,1027.82
2018-03-21T11:27:06.900Z,1027.86
2018-03-21T11:28:16.160Z,1027.82
2018-03-21T11:29:25.080Z,1027.83
2018-03-21T11:30:34.222Z,1027.81
2018-03-21T11:31:43.534Z,1027.78
2018-03-21T11:32:52.438Z,1027.82
2018-03-21T11:34:01.363Z,1027.78
2018-03-21T11:35:11.035Z,1027.82
2018-03-21T11:36:19.897Z,1027.76
2018-03-21T11:37:28.990Z,1027.77
2018-03-21T11:38:38.634Z,1027.75
2018-03-21T11:39:47.763Z,1027.75
2018-03-21T11:40:56.620Z,1027.77
2018-03-21T11:42:05.785Z,1027.81
2018-03-21T11:43:14.790Z,1027.78
2018-03-21T11:44:23.969Z,1027.76
2018-03-21T11:45:32.804Z,1027.75
2018-03-21T11:46:41.660Z,1027.75
2018-03-21T11:47:50.524Z,1027.75
2018-03-21T11:48:59.769Z,1027.77
2018-03-21T11:50:08.888Z,1027.72
2018-03-21T11:51:17.995Z,1027.67
2018-03-21T11:52:27.357Z,1027.66
2018-03-21T11:53:36.760Z,1027.66
2018-03-21T11:54:46.362Z,1027.62
2018-03-21T11:55:55.475Z,1027.59
2018-03-21T11:57:05.066Z,1027.57
2018-03-21T11:58:14.242Z,1027.55
2018-03-21T11:59:23.537Z,1027.59
2018-03-21T12:00:32.809Z,1027.56
2018-03-21T12:01:41.687Z,1027.52
2018-03-21T12:02:50.579Z,1027.46
2018-03-21T12:04:00.078Z,1027.52
2018-03-21T12:05:09.772Z,1027.51
2018-03-21T12:06:19.434Z,1027.46
2018-03-21T12:07:29.856Z,1027.49
2018-03-21T12:08:38.815Z,1027.5
2018-03-21T12:09:47.635Z,1027.47
2018-03-21T12:10:56.534Z,1027.54
2018-03-21T12:12:05.458Z,1027.53
2018-03-21T12:13:14.305Z,1027.52
2018-03-21T12:14:23.426Z,1027.53
2018-03-21T12:15:32.868Z,1027.64
2018-03-21T12:16:41.819Z,1027.61
2018-03-21T12:17:50.753Z,1027.59
2018-03-21T12:18:59.592Z,1027.54
2018-03-21T12:20:08.424Z,1027.53
2018-03-21T12:21:17.261Z,1027.51
2018-03-21T12:22:26.094Z,1027.47
2018-03-21T12:23:35.030Z,1027.41
2018-03-21T12:24:43.867Z,1027.42
2018-03-21T12:25:52.699Z,1027.44
2018-03-21T12:27:01.532Z,1027.47
2018-03-21T12:28:10.366Z,1027.41
2018-03-21T12:29:19.205Z,1027.45
2018-03-21T12:30:28.032Z,1027.37
2018-03-21T12:31:36.864Z,1027.36
2018-03-21T12:32:45.723Z,1027.39
2018-03-21T12:33:54.536Z,1027.33
2018-03-21T12:35:03.430Z,1027.35
2018-03-21T12:36:12.268Z,1027.38
2018-03-21T12:37:21.104Z,1027.31
2018-03-21T12:38:30.216Z,1027.27
2018-03-21T12:39:39.052Z,1027.31
2018-03-21T12:40:47.987Z,1027.31
2018-03-21T12:41:56.822Z,1027.38
2018-03-21T12:43:05.658Z,1027.39
2018-03-21T12:44:14.490Z,1027.41
2018-03-21T12:45:23.330Z,1027.44
2018-03-21T12:46:32.214Z,1027.45
2018-03-21T12:47:41.049Z,1027.48
2018-03-21T12:48:49.881Z,1027.55
2018-03-21T12:49:58.745Z,1027.5
2018-03-21T12:51:08.043Z,1027.47
2018-03-21T12:52:16.878Z,1027.58
2018-03-21T12:53:25.998Z,1027.58
2018-03-21T12:54:34.824Z,1027.61
2018-03-21T12:55:43.764Z,1027.62
2018-03-21T12:56:52.491Z,1027.7
2018-03-21T12:58:01.608Z,1027.67
2018-03-21T12:59:10.449Z,1027.68
2018-03-21T13:00:19.283Z,1027.65
2018-03-21T13:01:28.114Z,1027.62
2018-03-21T13:02:36.948Z,1027.6
2018-03-21T13:03:46.069Z,1027.57
2018-03-21T13:04:54.947Z,1027.46
2018-03-21T13:06:04.287Z,1027.48
2018-03-21T13:07:13.124Z,1027.44
2018-03-21T13:08:21.960Z,1027.41
2018-03-21T13:09:31.099Z,1027.36
2018-03-21T13:10:39.936Z,1027.36
2018-03-21T13:11:48.848Z,1027.36
2018-03-21T13:12:57.682Z,1027.29
2018-03-21T13:14:06.520Z,1027.24
2018-03-21T13:15:15.351Z,1027.25
2018-03-21T13:16:24.665Z,1027.18
2018-03-21T13:17:34.072Z,1027.13
2018-03-21T13:18:42.904Z,1027.09
2018-03-21T13:19:52.035Z,1026.99
2018-03-21T13:21:00.869Z,1026.9
2018-03-21T13:22:09.753Z,1026.96
2018-03-21T13:23:18.608Z,1026.99
2018-03-21T13:24:27.446Z,1027
2018-03-21T13:25:36.288Z,1027.07
2018-03-21T13:26:45.194Z,1027.02
2018-03-21T13:27:54.022Z,1027
2018-03-21T13:29:03.134Z,1027.07
2018-03-21T13:30:11.970Z,1027.08
2018-03-21T13:31:20.801Z,1026.99
2018-03-21T13:32:29.639Z,1026.99
2018-03-21T13:33:38.474Z,1027.03
2018-03-21T13:34:47.308Z,1026.92
2018-03-21T13:35:56.143Z,1026.85
2018-03-21T13:37:04.977Z,1026.89
2018-03-21T13:38:14.488Z,1026.91
2018-03-21T13:39:23.324Z,1026.87
2018-03-21T13:40:32.158Z,1026.84
2018-03-21T13:41:40.989Z,1026.83
2018-03-21T13:42:49.825Z,1026.82
2018-03-21T13:43:58.915Z,1026.84
2018-03-21T13:45:07.750Z,1026.82
2018-03-21T13:46:16.864Z,1026.85
2018-03-21T13:47:25.971Z,1026.86
2018-03-21T13:48:34.805Z,1026.8
2018-03-21T13:49:43.688Z,1026.81
2018-03-21T13:50:52.523Z,1026.81
2018-03-21T13:52:01.358Z,1026.74
2018-03-21T13:53:10.192Z,1026.75
2018-03-21T13:54:19.022Z,1026.71
2018-03-21T13:55:27.856Z,1026.74
2018-03-21T13:56:36.691Z,1026.71
2018-03-21T13:57:45.564Z,1026.72
2018-03-21T13:58:54.358Z,1026.66
2018-03-21T14:00:03.194Z,1026.73
2018-03-21T14:01:12.328Z,1026.73